Terminal Aerodrome Forecast
Issued by NWS

Home | Current Version | Previous Version | Text Only | Print | Product List | Glossary On
Versions: 1 2 3 4 5 6 7 8 9 10 11 12 13 14 15 16
000
FTUS45 KRIW 190522
TAFCOD
TAF
KCOD 190522Z 1906/2006 24014G24KT P6SM SKC
     FM191000 24012G18KT P6SM SCT200 WS010/24045KT
     FM191700 24010KT P6SM BKN120
     FM200100 24014G20KT P6SM SCT120
      AMD LTD TO CLD VIS AND WIND=

USA.gov is the U.S. government's official web portal to all federal, state and local government web resources and services.